Time;durP1;ratioP1;P1;durP2;ratioP2;P2;SDS_P1;SDS_P2;PMS_P1;PMS_P2;Temp;Humidity;BMP_temperature;BMP_pressure;BME280_temperature;BME280_humidity;BME280_pressure;Samples;Min_cycle;Max_cycle;Signal;HPM_P1;HPM_P2
2023/03/21 00:01:30;;;;;;;12.30;9.33;;;10.30;99.90;;;;;;5042339;28;20688;-75
2023/03/21 00:03:56;;;;;;;11.80;9.90;;;10.30;99.90;;;;;;5062003;28;20207;-76
2023/03/21 00:06:21;;;;;;;12.07;9.00;;;10.30;99.90;;;;;;5040046;28;20302;-75
2023/03/21 00:08:47;;;;;;;14.97;10.67;;;10.30;99.90;;;;;;5046065;28;20204;-74
2023/03/21 00:11:13;;;;;;;14.53;10.40;;;10.20;99.90;;;;;;5047222;28;20893;-76
2023/03/21 00:13:41;;;;;;;14.13;10.37;;;10.20;99.90;;;;;;5041749;28;20180;-76
2023/03/21 00:16:08;;;;;;;13.87;11.17;;;10.20;99.90;;;;;;5046579;28;20199;-76
2023/03/21 00:18:35;;;;;;;15.20;10.73;;;10.30;99.90;;;;;;5042924;28;20257;-76
2023/03/21 00:21:04;;;;;;;16.23;10.73;;;10.30;99.90;;;;;;5044808;28;20257;-77
2023/03/21 00:23:31;;;;;;;12.40;10.90;;;10.30;99.90;;;;;;5058481;28;20218;-78
2023/03/21 00:25:58;;;;;;;14.57;10.83;;;10.30;99.90;;;;;;5039431;28;20219;-77
2023/03/21 00:28:24;;;;;;;12.60;9.97;;;10.20;99.90;;;;;;5040598;28;20208;-77
2023/03/21 00:30:50;;;;;;;14.17;10.57;;;10.30;99.90;;;;;;5048892;28;20211;-76
2023/03/21 00:33:19;;;;;;;16.50;11.13;;;10.20;99.90;;;;;;5047157;28;20819;-76
2023/03/21 00:35:46;;;;;;;15.83;10.27;;;10.10;99.90;;;;;;5046043;28;20200;-77
2023/03/21 00:38:13;;;;;;;13.70;11.20;;;10.10;99.90;;;;;;5038538;28;20270;-76
2023/03/21 00:40:38;;;;;;;15.87;10.60;;;10.10;99.90;;;;;;5044590;28;20184;-76
2023/03/21 00:43:04;;;;;;;13.27;10.47;;;10.10;99.90;;;;;;5048512;28;20171;-77
2023/03/21 00:45:30;;;;;;;16.13;11.40;;;10.10;99.90;;;;;;5039670;28;20223;-77
2023/03/21 00:47:56;;;;;;;16.33;12.70;;;10.10;99.90;;;;;;5043184;28;20708;-75
2023/03/21 00:50:22;;;;;;;17.70;12.40;;;10.10;99.90;;;;;;5042757;28;20298;-77
2023/03/21 00:52:48;;;;;;;17.77;11.60;;;10.10;99.90;;;;;;5042321;28;20272;-75
2023/03/21 00:55:16;;;;;;;17.57;12.20;;;10.10;99.90;;;;;;5043602;28;20215;-77
2023/03/21 00:57:42;;;;;;;14.43;12.43;;;10.10;99.90;;;;;;5046077;28;20216;-77
2023/03/21 01:00:11;;;;;;;14.97;12.07;;;10.10;99.90;;;;;;5046288;28;20203;-76
2023/03/21 01:02:55;;;;;;;15.10;11.67;;;10.00;99.90;;;;;;5043863;28;20656;-77
2023/03/21 01:08:11;;;;;;;18.90;13.10;;;10.00;99.90;;;;;;5041063;28;20214;-77
2023/03/21 01:10:39;;;;;;;17.70;14.47;;;10.00;99.90;;;;;;5040210;28;20180;-76
2023/03/21 01:13:04;;;;;;;21.00;14.20;;;10.00;99.90;;;;;;5040980;28;20171;-77
2023/03/21 01:15:30;;;;;;;20.43;13.90;;;10.00;99.90;;;;;;5060828;28;20212;-77
2023/03/21 01:17:55;;;;;;;18.83;14.20;;;9.90;99.90;;;;;;5045374;28;20552;-78
2023/03/21 01:20:21;;;;;;;21.87;13.70;;;9.90;99.90;;;;;;5045400;28;20214;-77
2023/03/21 01:22:47;;;;;;;20.43;14.73;;;9.90;99.90;;;;;;5045093;28;20164;-76
2023/03/21 01:25:12;;;;;;;18.70;14.80;;;9.80;99.90;;;;;;5048368;28;20195;-77
2023/03/21 01:27:38;;;;;;;18.80;14.00;;;9.90;99.90;;;;;;5040055;28;20604;-77
2023/03/21 01:30:05;;;;;;;22.00;16.03;;;9.90;99.90;;;;;;5043429;28;20196;-77
2023/03/21 01:32:30;;;;;;;22.30;15.20;;;10.00;99.90;;;;;;5038536;28;20564;-77
2023/03/21 01:34:56;;;;;;;22.73;15.07;;;9.90;99.90;;;;;;5048423;28;20290;-78
2023/03/21 01:37:22;;;;;;;18.63;15.60;;;9.90;99.90;;;;;;5048028;28;20203;-77
2023/03/21 01:39:47;;;;;;;20.80;16.13;;;9.90;99.90;;;;;;5047048;28;20227;-77
2023/03/21 01:42:13;;;;;;;18.83;15.80;;;9.90;99.90;;;;;;5044942;28;20274;-78
2023/03/21 01:45:29;;;;;;;25.10;17.37;;;9.90;99.90;;;;;;5045533;28;20229;-78
2023/03/21 01:47:55;;;;;;;23.30;17.37;;;9.80;99.90;;;;;;5010296;28;20578;-77
2023/03/21 01:50:21;;;;;;;26.83;18.17;;;9.80;99.90;;;;;;5046865;28;20208;-76
2023/03/21 01:52:48;;;;;;;21.97;18.03;;;9.90;99.90;;;;;;5049470;28;20286;-77
2023/03/21 01:55:17;;;;;;;21.73;18.00;;;9.90;99.90;;;;;;5049300;28;20701;-76
2023/03/21 01:57:48;;;;;;;24.87;19.90;;;9.90;99.90;;;;;;5045889;28;20286;-76
2023/03/21 02:00:15;;;;;;;25.10;19.73;;;9.80;99.90;;;;;;5046874;28;20211;-75
2023/03/21 02:02:49;;;;;;;27.53;20.37;;;9.70;99.90;;;;;;5050044;28;20674;-76
2023/03/21 02:05:20;;;;;;;27.80;21.07;;;9.70;99.90;;;;;;5044429;28;20570;-75
2023/03/21 02:07:48;;;;;;;26.90;20.57;;;9.60;99.90;;;;;;5045506;28;20684;-76
2023/03/21 02:10:14;;;;;;;29.50;20.50;;;9.60;99.90;;;;;;5048995;28;20190;-77
2023/03/21 02:12:40;;;;;;;30.57;21.83;;;9.60;99.90;;;;;;5045851;28;20279;-76
2023/03/21 02:15:07;;;;;;;30.70;21.47;;;9.60;99.90;;;;;;5043511;28;20298;-76
2023/03/21 02:17:55;;;;;;;27.67;21.17;;;9.70;99.90;;;;;;5044233;28;20204;-76
2023/03/21 02:20:40;;;;;;;28.73;21.70;;;9.60;99.90;;;;;;5062327;28;20234;-77
2023/03/21 02:23:48;;;;;;;27.83;21.47;;;9.60;99.90;;;;;;5044442;28;20713;-75
2023/03/21 02:26:35;;;;;;;29.03;23.13;;;9.60;99.90;;;;;;5021147;28;20306;-76
2023/03/21 02:29:27;;;;;;;34.33;22.43;;;9.60;99.90;;;;;;5046534;28;20284;-74
2023/03/21 02:32:25;;;;;;;28.60;23.67;;;9.60;99.90;;;;;;5045780;28;20172;-76
2023/03/21 02:35:14;;;;;;;30.20;22.30;;;9.60;99.90;;;;;;5009556;28;20259;-77
2023/03/21 02:38:17;;;;;;;30.70;23.43;;;9.60;99.90;;;;;;5062310;28;20187;-76
2023/03/21 02:40:43;;;;;;;30.73;22.23;;;9.50;99.90;;;;;;5047870;28;20267;-76
2023/03/21 02:43:22;;;;;;;32.63;21.63;;;9.50;99.90;;;;;;5042088;28;20241;-76
2023/03/21 02:45:53;;;;;;;29.57;22.97;;;9.60;99.90;;;;;;5043724;28;20213;-76
2023/03/21 02:48:31;;;;;;;31.63;23.07;;;9.50;99.90;;;;;;5043791;28;20293;-75
2023/03/21 02:51:00;;;;;;;30.07;24.03;;;9.50;99.90;;;;;;5042160;28;20202;-76
2023/03/21 02:53:32;;;;;;;36.60;24.30;;;9.40;99.90;;;;;;5047929;28;20207;-76
2023/03/21 02:55:59;;;;;;;32.20;22.80;;;9.50;99.90;;;;;;5045378;28;20218;-76
2023/03/21 02:58:28;;;;;;;32.53;23.33;;;9.50;99.90;;;;;;5077237;23;20233;-78
2023/03/21 03:00:55;;;;;;;31.30;23.13;;;9.40;99.90;;;;;;5054941;28;20227;-79
2023/03/21 03:03:22;;;;;;;31.57;23.43;;;9.40;99.90;;;;;;5066007;28;20199;-78
2023/03/21 03:05:52;;;;;;;30.83;22.70;;;9.40;99.90;;;;;;5050703;28;20198;-79
2023/03/21 03:08:27;;;;;;;34.67;24.57;;;9.40;99.90;;;;;;5063448;28;20207;-79
2023/03/21 03:11:01;;;;;;;30.13;23.13;;;9.40;99.90;;;;;;5064615;28;20189;-78
2023/03/21 03:13:51;;;;;;;33.77;22.47;;;9.40;99.90;;;;;;5047487;28;20174;-78
2023/03/21 03:16:38;;;;;;;30.63;22.83;;;9.40;99.90;;;;;;5065824;28;20207;-79
2023/03/21 03:19:09;;;;;;;34.70;23.00;;;9.40;99.90;;;;;;5065634;28;20201;-77
2023/03/21 03:21:41;;;;;;;32.20;22.27;;;9.40;99.90;;;;;;5070611;28;20214;-79
2023/03/21 03:24:12;;;;;;;32.23;22.93;;;9.40;99.90;;;;;;5048865;28;20203;-79
2023/03/21 03:27:03;;;;;;;33.50;23.07;;;9.40;99.90;;;;;;5051507;28;20220;-78
2023/03/21 03:29:32;;;;;;;31.33;23.20;;;9.30;99.90;;;;;;5062417;28;20708;-79
2023/03/21 03:32:24;;;;;;;31.87;23.27;;;9.30;99.90;;;;;;5061500;28;20248;-79
2023/03/21 03:34:55;;;;;;;34.10;23.03;;;9.40;99.90;;;;;;5061202;28;20703;-79
2023/03/21 03:37:25;;;;;;;35.43;24.07;;;9.40;99.90;;;;;;5065332;28;20191;-78
2023/03/21 03:40:07;;;;;;;34.23;22.83;;;9.40;99.90;;;;;;5048592;28;20296;-79
2023/03/21 03:42:42;;;;;;;28.50;21.47;;;9.30;99.90;;;;;;5041687;28;20715;-80
2023/03/21 03:45:09;;;;;;;33.50;21.93;;;9.30;99.90;;;;;;5047504;28;20206;-78
2023/03/21 03:47:46;;;;;;;32.70;23.47;;;9.30;99.90;;;;;;5060805;28;20701;-80
2023/03/21 03:50:43;;;;;;;35.63;23.00;;;9.30;99.90;;;;;;5045949;28;20229;-80
2023/03/21 03:53:22;;;;;;;32.80;22.83;;;9.30;99.90;;;;;;5060455;28;20207;-80
2023/03/21 03:55:48;;;;;;;31.73;22.30;;;9.40;99.90;;;;;;5062746;28;20194;-80
2023/03/21 03:58:18;;;;;;;33.03;22.00;;;9.40;99.90;;;;;;5066644;28;20242;-79
2023/03/21 04:00:44;;;;;;;33.70;23.07;;;9.30;99.90;;;;;;5043043;28;20290;-78
2023/03/21 04:03:10;;;;;;;29.33;23.23;;;9.30;99.90;;;;;;5080617;28;20209;-81
2023/03/21 04:05:36;;;;;;;33.37;22.80;;;9.30;99.90;;;;;;5086055;28;20211;-82
2023/03/21 04:08:02;;;;;;;34.77;22.77;;;9.30;99.90;;;;;;5082722;28;20211;-80
2023/03/21 04:10:27;;;;;;;31.03;22.90;;;9.30;99.90;;;;;;5084556;28;20183;-80
2023/03/21 04:12:53;;;;;;;37.43;22.63;;;9.30;99.90;;;;;;5068267;28;20206;-79
2023/03/21 04:15:19;;;;;;;35.57;22.90;;;9.30;99.90;;;;;;5071148;28;20207;-79
2023/03/21 04:17:45;;;;;;;32.37;22.47;;;9.30;99.90;;;;;;5052064;28;20215;-79
2023/03/21 04:20:11;;;;;;;30.90;22.13;;;9.40;99.90;;;;;;5049979;28;20203;-79
2023/03/21 04:22:37;;;;;;;30.17;20.10;;;9.40;99.90;;;;;;5056337;28;20175;-79
2023/03/21 04:25:04;;;;;;;33.03;22.63;;;9.30;99.90;;;;;;5049535;28;20733;-79
2023/03/21 04:27:31;;;;;;;32.80;21.80;;;9.40;99.90;;;;;;5069470;28;20218;-79
2023/03/21 04:29:57;;;;;;;37.93;21.87;;;9.30;99.90;;;;;;5086088;28;20195;-80
2023/03/21 04:32:23;;;;;;;32.03;22.13;;;9.30;99.90;;;;;;5071228;28;20252;-79
2023/03/21 04:34:52;;;;;;;31.97;21.97;;;9.30;99.90;;;;;;5074592;28;20235;-82
2023/03/21 04:37:22;;;;;;;32.10;22.70;;;9.30;99.90;;;;;;5055619;28;20187;-79
2023/03/21 04:39:49;;;;;;;35.53;21.70;;;9.30;99.90;;;;;;5068025;28;20221;-80
2023/03/21 04:42:17;;;;;;;32.47;22.77;;;9.30;99.90;;;;;;5060351;28;20211;-79
2023/03/21 04:44:46;;;;;;;33.47;22.70;;;9.30;99.90;;;;;;5078902;28;20208;-80
2023/03/21 04:47:14;;;;;;;35.20;22.07;;;9.40;99.90;;;;;;5065386;28;20314;-80
2023/03/21 04:49:43;;;;;;;32.57;20.83;;;9.30;99.90;;;;;;5081247;28;20180;-80
2023/03/21 04:52:09;;;;;;;33.87;22.50;;;9.30;99.90;;;;;;5087091;28;20175;-80
2023/03/21 04:54:35;;;;;;;31.90;21.97;;;9.30;99.90;;;;;;5079283;28;20214;-78
2023/03/21 04:57:00;;;;;;;28.87;20.83;;;9.30;99.90;;;;;;5079586;28;20207;-81
2023/03/21 04:59:26;;;;;;;36.97;24.30;;;9.30;99.90;;;;;;5064166;28;20409;-82
2023/03/21 05:01:51;;;;;;;32.73;22.00;;;9.20;99.90;;;;;;5052579;28;20186;-81
2023/03/21 05:04:17;;;;;;;33.80;21.93;;;9.30;99.90;;;;;;5069168;28;20183;-81
2023/03/21 05:06:44;;;;;;;33.60;22.03;;;9.30;99.90;;;;;;5067955;28;20253;-80
2023/03/21 05:09:11;;;;;;;31.40;21.63;;;9.30;99.90;;;;;;5066583;28;20211;-81
2023/03/21 05:11:39;;;;;;;35.77;20.93;;;9.30;99.90;;;;;;5052635;28;20207;-80
2023/03/21 05:14:07;;;;;;;33.20;21.80;;;9.20;99.90;;;;;;5071622;28;20210;-80
2023/03/21 05:16:35;;;;;;;37.47;22.30;;;9.20;99.90;;;;;;5052485;28;20175;-81
2023/03/21 05:19:04;;;;;;;35.60;22.73;;;9.20;99.90;;;;;;5083877;28;20732;-81
2023/03/21 05:21:40;;;;;;;34.90;22.57;;;9.20;99.90;;;;;;5085812;28;20218;-80
2023/03/21 05:24:11;;;;;;;34.80;22.83;;;9.30;99.90;;;;;;5072921;28;20694;-81
2023/03/21 05:26:37;;;;;;;35.53;22.10;;;9.30;99.90;;;;;;5068020;28;20237;-79
2023/03/21 05:29:03;;;;;;;36.07;22.97;;;9.30;99.90;;;;;;5050748;28;20657;-81
2023/03/21 05:31:29;;;;;;;30.73;22.37;;;9.40;99.90;;;;;;5054873;28;20548;-81
2023/03/21 05:33:55;;;;;;;32.37;21.80;;;9.30;99.90;;;;;;5068916;28;20267;-81
2023/03/21 05:36:20;;;;;;;37.33;22.67;;;9.30;99.90;;;;;;5053078;28;20211;-80
2023/03/21 05:38:46;;;;;;;35.77;23.37;;;9.30;99.90;;;;;;5058943;28;20784;-81
2023/03/21 05:41:13;;;;;;;35.30;22.53;;;9.20;99.90;;;;;;5055685;28;20207;-81
2023/03/21 05:43:39;;;;;;;36.10;22.97;;;9.20;99.90;;;;;;5056199;28;20247;-81
2023/03/21 05:46:04;;;;;;;33.50;23.13;;;9.30;99.90;;;;;;5081981;28;20221;-81
2023/03/21 05:48:30;;;;;;;35.83;23.73;;;9.30;99.90;;;;;;5073570;28;20207;-81
2023/03/21 05:50:56;;;;;;;41.97;22.27;;;9.30;99.90;;;;;;5053350;28;20238;-81
2023/03/21 05:53:21;;;;;;;37.53;23.30;;;9.30;99.90;;;;;;5075430;28;20601;-81
2023/03/21 05:55:47;;;;;;;38.50;23.37;;;9.30;99.90;;;;;;5071834;28;20665;-80
2023/03/21 05:58:13;;;;;;;37.80;21.97;;;9.40;99.90;;;;;;5068233;28;20271;-81
2023/03/21 06:00:38;;;;;;;39.87;23.10;;;9.40;99.90;;;;;;5069861;28;20293;-80
2023/03/21 06:03:04;;;;;;;39.13;23.53;;;9.50;99.90;;;;;;5057891;28;20202;-81
2023/03/21 06:05:30;;;;;;;39.67;22.83;;;9.50;99.90;;;;;;5071647;28;20249;-81
2023/03/21 06:07:56;;;;;;;34.47;21.53;;;9.60;99.90;;;;;;5070302;28;20690;-81
2023/03/21 06:10:21;;;;;;;38.50;23.50;;;9.50;99.90;;;;;;5050640;28;20616;-81
2023/03/21 06:12:47;;;;;;;42.47;22.33;;;9.60;99.90;;;;;;5054433;28;20705;-80
2023/03/21 06:15:13;;;;;;;35.20;22.77;;;9.50;99.90;;;;;;5074248;28;20596;-81
2023/03/21 06:17:39;;;;;;;39.97;22.90;;;9.60;99.90;;;;;;5070835;28;20223;-80
2023/03/21 06:20:06;;;;;;;32.83;21.70;;;9.60;99.90;;;;;;5070935;28;20243;-80
2023/03/21 06:22:33;;;;;;;38.23;22.53;;;9.60;99.90;;;;;;5052636;28;20223;-81
2023/03/21 06:24:59;;;;;;;39.60;24.20;;;9.50;99.90;;;;;;5074268;28;20215;-81
2023/03/21 06:27:25;;;;;;;35.57;22.27;;;9.40;99.90;;;;;;5055072;28;20214;-81
2023/03/21 06:29:51;;;;;;;39.27;23.50;;;9.40;99.90;;;;;;5067841;28;20589;-81
2023/03/21 06:32:16;;;;;;;35.47;22.27;;;9.40;99.90;;;;;;5070732;28;20203;-80
2023/03/21 06:34:42;;;;;;;37.57;24.20;;;9.40;99.90;;;;;;5056135;28;20175;-80
2023/03/21 06:37:08;;;;;;;36.37;22.47;;;9.50;99.90;;;;;;5073986;28;20209;-81
2023/03/21 06:39:34;;;;;;;33.90;21.30;;;9.50;99.90;;;;;;5067084;28;20256;-81
2023/03/21 06:42:00;;;;;;;41.00;23.67;;;9.50;99.90;;;;;;5071807;28;21383;-81
2023/03/21 06:44:27;;;;;;;39.67;22.57;;;9.60;99.90;;;;;;5071522;28;20248;-81
2023/03/21 06:46:53;;;;;;;35.63;22.03;;;9.60;99.90;;;;;;5071047;28;20212;-81
2023/03/21 06:49:19;;;;;;;34.77;23.03;;;9.60;99.90;;;;;;5053580;28;20182;-81
2023/03/21 06:51:45;;;;;;;37.63;24.37;;;9.50;99.90;;;;;;5054888;28;20282;-80
2023/03/21 06:54:13;;;;;;;41.73;24.57;;;9.40;99.90;;;;;;5050317;28;20738;-81
2023/03/21 06:56:39;;;;;;;36.23;22.77;;;9.40;99.90;;;;;;5073249;28;20211;-81
2023/03/21 06:59:05;;;;;;;42.63;23.80;;;9.50;99.90;;;;;;5057153;28;20225;-81
2023/03/21 07:01:30;;;;;;;36.70;22.07;;;9.40;99.90;;;;;;5050575;28;20179;-81
2023/03/21 07:03:57;;;;;;;39.70;24.43;;;9.40;99.90;;;;;;5055768;28;20211;-80
2023/03/21 07:06:27;;;;;;;36.97;23.60;;;9.50;99.90;;;;;;5055804;28;20301;-81
2023/03/21 07:08:54;;;;;;;39.70;24.07;;;9.50;99.90;;;;;;5051044;28;20210;-80
2023/03/21 07:11:20;;;;;;;37.53;23.33;;;9.60;99.90;;;;;;5071130;28;20222;-81
2023/03/21 07:13:47;;;;;;;37.60;24.30;;;9.50;99.90;;;;;;5048215;28;20187;-80
2023/03/21 07:16:14;;;;;;;37.63;24.00;;;9.30;99.90;;;;;;5053096;28;20179;-81
2023/03/21 07:18:40;;;;;;;37.80;24.20;;;9.50;99.90;;;;;;5072222;28;20590;-81
2023/03/21 07:21:06;;;;;;;43.37;25.03;;;9.60;99.90;;;;;;5052238;28;20203;-81
2023/03/21 07:23:33;;;;;;;41.93;24.83;;;9.60;99.90;;;;;;5068981;28;20278;-81
2023/03/21 07:25:59;;;;;;;37.53;24.00;;;9.70;99.90;;;;;;5066538;28;20586;-81
2023/03/21 07:28:25;;;;;;;42.20;25.23;;;9.70;99.90;;;;;;5058233;28;20305;-81
2023/03/21 07:30:56;;;;;;;42.00;25.37;;;9.70;99.90;;;;;;5051646;28;20289;-81
2023/03/21 07:33:22;;;;;;;41.17;25.37;;;9.70;99.90;;;;;;5047294;28;20253;-81
2023/03/21 07:35:50;;;;;;;39.57;25.53;;;9.70;99.90;;;;;;5068027;28;20253;-81
2023/03/21 07:38:16;;;;;;;36.47;23.50;;;9.70;99.90;;;;;;5072870;28;20203;-80
2023/03/21 07:40:43;;;;;;;37.63;25.03;;;9.70;99.90;;;;;;5050243;28;20198;-81
2023/03/21 07:43:09;;;;;;;37.40;24.13;;;9.60;99.90;;;;;;5053796;28;20637;-81
2023/03/21 07:45:34;;;;;;;45.40;26.63;;;9.60;99.90;;;;;;5049595;28;20203;-81
2023/03/21 07:48:00;;;;;;;43.67;25.60;;;9.60;99.90;;;;;;5053615;28;20272;-81
2023/03/21 07:50:26;;;;;;;42.13;25.20;;;9.50;99.90;;;;;;5058042;28;20210;-81
2023/03/21 07:52:53;;;;;;;38.13;23.83;;;9.60;99.90;;;;;;5055839;28;20649;-80
2023/03/21 07:55:19;;;;;;;36.90;23.03;;;9.60;99.90;;;;;;5050172;28;20187;-81
2023/03/21 07:57:45;;;;;;;42.43;25.87;;;9.70;99.90;;;;;;5070092;28;20299;-78
2023/03/21 08:00:21;;;;;;;39.43;24.13;;;9.70;99.90;;;;;;5058518;28;20233;-81
2023/03/21 08:02:53;;;;;;;43.97;25.87;;;9.70;99.90;;;;;;5071175;28;20205;-82
2023/03/21 08:05:23;;;;;;;45.70;25.87;;;9.80;99.90;;;;;;5056720;28;20547;-80
2023/03/21 08:07:50;;;;;;;39.37;24.13;;;9.90;99.90;;;;;;5049322;28;20254;-80
2023/03/21 08:10:17;;;;;;;39.27;23.90;;;9.80;99.90;;;;;;5056752;28;20191;-80
2023/03/21 08:12:44;;;;;;;36.27;23.77;;;9.90;99.90;;;;;;5071461;28;20195;-80
2023/03/21 08:15:11;;;;;;;38.40;23.47;;;9.90;99.90;;;;;;5056877;28;20195;-80
2023/03/21 08:17:38;;;;;;;43.87;25.63;;;9.80;99.90;;;;;;5047608;28;20231;-80
2023/03/21 08:20:10;;;;;;;39.33;24.10;;;9.90;99.90;;;;;;5057104;28;20203;-80
2023/03/21 08:22:37;;;;;;;35.83;22.40;;;10.00;99.90;;;;;;5052352;28;20734;-80
2023/03/21 08:25:05;;;;;;;36.77;22.97;;;10.00;99.90;;;;;;5069424;28;20164;-80
2023/03/21 08:27:31;;;;;;;35.23;22.87;;;10.00;99.90;;;;;;5066648;28;20214;-80
2023/03/21 08:29:58;;;;;;;36.20;23.77;;;10.10;99.90;;;;;;5056012;28;20206;-80
2023/03/21 08:32:28;;;;;;;37.50;23.17;;;10.20;99.90;;;;;;5074079;28;20282;-80
2023/03/21 08:34:54;;;;;;;34.20;21.33;;;10.20;99.90;;;;;;5069296;28;20211;-80
2023/03/21 08:37:20;;;;;;;33.97;22.40;;;10.10;99.90;;;;;;5069691;28;20198;-80
2023/03/21 08:39:46;;;;;;;33.27;20.57;;;10.10;99.90;;;;;;5046152;28;20723;-81
2023/03/21 08:42:12;;;;;;;36.10;23.03;;;10.20;99.90;;;;;;5085838;28;20195;-80
2023/03/21 08:44:38;;;;;;;35.27;22.27;;;10.10;99.90;;;;;;5073158;28;20211;-80
2023/03/21 08:47:05;;;;;;;35.13;21.50;;;10.30;99.90;;;;;;5072030;28;20290;-80
2023/03/21 08:49:31;;;;;;;36.00;22.07;;;10.20;99.90;;;;;;5072606;28;20175;-80
2023/03/21 08:51:56;;;;;;;34.43;22.03;;;10.20;99.90;;;;;;5060346;28;20211;-81
2023/03/21 08:54:22;;;;;;;32.63;21.47;;;10.20;99.90;;;;;;5073690;28;20210;-81
2023/03/21 08:56:54;;;;;;;35.77;22.07;;;10.10;99.90;;;;;;5069452;28;20328;-80
2023/03/21 08:59:20;;;;;;;33.57;21.57;;;10.20;99.90;;;;;;5054405;28;20281;-79
2023/03/21 09:01:46;;;;;;;39.20;21.40;;;10.20;99.90;;;;;;5061418;28;20179;-78
2023/03/21 09:04:12;;;;;;;35.03;21.43;;;10.30;99.90;;;;;;5050121;28;20171;-79
2023/03/21 09:06:47;;;;;;;31.87;20.63;;;10.30;99.90;;;;;;5069666;28;20712;-79
2023/03/21 09:09:14;;;;;;;35.10;21.30;;;10.40;99.90;;;;;;5067776;28;20221;-79
2023/03/21 09:11:40;;;;;;;36.23;22.10;;;10.30;99.90;;;;;;5066170;28;21225;-78
2023/03/21 09:14:06;;;;;;;33.23;20.43;;;10.30;99.90;;;;;;5078580;28;20325;-79
2023/03/21 09:16:32;;;;;;;34.30;21.07;;;10.30;99.90;;;;;;5055052;28;20586;-78
2023/03/21 09:18:58;;;;;;;37.97;23.57;;;10.40;99.90;;;;;;5064807;28;20207;-79
2023/03/21 09:21:27;;;;;;;43.23;21.67;;;10.30;99.90;;;;;;5064053;28;20214;-79
2023/03/21 09:23:55;;;;;;;34.83;20.53;;;10.30;99.90;;;;;;5063536;28;20610;-79
2023/03/21 09:26:22;;;;;;;32.47;19.83;;;10.40;99.90;;;;;;5069578;28;20681;-79
2023/03/21 09:28:49;;;;;;;33.43;22.67;;;10.40;99.90;;;;;;5048043;28;20183;-79
2023/03/21 09:31:20;;;;;;;39.27;23.07;;;10.40;99.90;;;;;;5054416;28;20175;-79
2023/03/21 09:33:46;;;;;;;34.33;22.93;;;10.40;99.90;;;;;;5043077;28;20473;-79
2023/03/21 09:36:15;;;;;;;35.43;22.70;;;10.30;99.90;;;;;;5053562;28;20604;-78
2023/03/21 09:38:44;;;;;;;33.47;21.47;;;10.30;99.90;;;;;;5049671;28;20220;-79
2023/03/21 09:41:26;;;;;;;32.17;20.37;;;10.40;99.90;;;;;;5066902;28;20206;-79
2023/03/21 09:44:23;;;;;;;34.17;20.93;;;10.30;99.90;;;;;;5077007;28;20247;-77
2023/03/21 09:47:04;;;;;;;33.23;20.90;;;10.30;99.90;;;;;;5070746;28;20211;-80
2023/03/21 09:49:48;;;;;;;33.97;21.77;;;10.40;99.90;;;;;;5080460;28;20207;-79
2023/03/21 09:52:48;;;;;;;36.63;21.53;;;10.50;99.90;;;;;;5064814;28;20203;-79
2023/03/21 09:55:25;;;;;;;34.80;21.40;;;10.40;99.90;;;;;;5066002;28;20240;-79
2023/03/21 09:58:03;;;;;;;33.70;21.27;;;10.50;99.90;;;;;;5056368;28;20222;-78
2023/03/21 10:00:39;;;;;;;34.47;20.60;;;10.60;99.90;;;;;;5073677;28;20212;-79
2023/03/21 10:03:23;;;;;;;33.03;20.80;;;10.60;99.90;;;;;;5069198;28;20210;-79
2023/03/21 10:05:57;;;;;;;37.17;21.10;;;10.60;99.90;;;;;;5048877;28;20211;-80
2023/03/21 10:08:35;;;;;;;37.77;21.07;;;10.80;99.90;;;;;;5054665;28;20335;-79
2023/03/21 10:11:18;;;;;;;27.97;19.07;;;10.80;99.90;;;;;;5061991;28;20210;-80
2023/03/21 10:14:00;;;;;;;31.63;20.30;;;11.10;99.90;;;;;;5087632;28;20182;-80
2023/03/21 10:16:30;;;;;;;33.63;21.10;;;11.10;99.90;;;;;;5069559;28;20163;-80
2023/03/21 10:18:58;;;;;;;33.60;19.27;;;11.10;99.90;;;;;;5094766;28;20195;-78
2023/03/21 10:21:26;;;;;;;29.70;20.10;;;11.10;99.90;;;;;;5076322;28;20551;-79
2023/03/21 10:23:54;;;;;;;30.30;19.23;;;11.20;99.90;;;;;;5071714;28;20209;-78
2023/03/21 10:26:23;;;;;;;30.33;18.67;;;11.20;99.90;;;;;;5069181;28;20244;-78
2023/03/21 10:28:49;;;;;;;29.87;20.10;;;11.10;99.90;;;;;;5071973;28;20182;-80
2023/03/21 10:31:18;;;;;;;30.77;19.23;;;11.20;99.90;;;;;;5074506;28;20167;-79
2023/03/21 10:33:47;;;;;;;27.20;18.20;;;11.30;99.90;;;;;;5069414;28;20199;-80
2023/03/21 10:36:24;;;;;;;29.67;19.50;;;11.40;99.90;;;;;;5068078;28;20211;-80
2023/03/21 10:38:54;;;;;;;27.97;18.60;;;11.60;99.90;;;;;;5049272;28;20210;-79
2023/03/21 10:41:20;;;;;;;30.43;19.47;;;11.60;99.90;;;;;;5070588;28;20612;-80
2023/03/21 10:44:02;;;;;;;27.43;19.00;;;11.60;99.90;;;;;;5071933;28;20233;-80
2023/03/21 10:46:28;;;;;;;31.30;19.73;;;11.80;99.90;;;;;;5070124;28;20195;-80
2023/03/21 10:48:54;;;;;;;27.70;19.33;;;11.90;99.90;;;;;;5063917;28;20257;-78
2023/03/21 10:51:24;;;;;;;27.57;18.77;;;11.80;99.90;;;;;;5070790;28;20214;-79
2023/03/21 10:53:57;;;;;;;23.30;17.27;;;11.70;99.90;;;;;;5069795;28;20203;-79
2023/03/21 10:56:26;;;;;;;28.43;18.97;;;11.60;99.90;;;;;;5053296;28;20214;-79
2023/03/21 10:58:57;;;;;;;28.40;19.00;;;11.60;99.90;;;;;;5064205;28;20187;-80
2023/03/21 11:01:33;;;;;;;26.47;17.73;;;11.60;99.90;;;;;;5071018;28;20254;-79
2023/03/21 11:04:04;;;;;;;29.10;17.73;;;11.60;99.90;;;;;;5052092;28;20199;-79
2023/03/21 11:06:32;;;;;;;26.00;18.50;;;11.70;99.90;;;;;;5053312;28;20215;-79
2023/03/21 11:09:12;;;;;;;23.23;15.33;;;11.60;99.90;;;;;;5062484;28;20767;-78
2023/03/21 11:11:39;;;;;;;26.13;15.93;;;11.60;99.90;;;;;;5070616;28;20715;-80
2023/03/21 11:14:22;;;;;;;24.17;16.03;;;11.60;99.90;;;;;;5069896;28;20712;-79
2023/03/21 11:16:48;;;;;;;25.40;15.90;;;11.50;99.90;;;;;;5052188;28;20202;-79
2023/03/21 11:19:35;;;;;;;26.27;16.00;;;11.50;99.90;;;;;;5065442;28;20545;-79
2023/03/21 11:22:06;;;;;;;21.83;14.43;;;11.40;99.90;;;;;;5051259;28;20576;-78
2023/03/21 11:24:32;;;;;;;23.70;15.53;;;11.50;99.90;;;;;;5071289;28;20578;-79
2023/03/21 11:26:58;;;;;;;25.53;15.17;;;11.50;99.90;;;;;;5069731;28;20290;-78
2023/03/21 11:29:38;;;;;;;25.37;15.73;;;11.60;99.90;;;;;;5067328;28;20245;-79
2023/03/21 11:32:19;;;;;;;23.47;15.43;;;11.60;99.90;;;;;;5073696;28;20222;-79
2023/03/21 11:34:45;;;;;;;25.33;15.70;;;11.70;99.90;;;;;;5079282;28;20175;-80
2023/03/21 11:37:38;;;;;;;24.57;14.80;;;11.70;99.90;;;;;;5077247;28;20282;-79
2023/03/21 11:40:23;;;;;;;22.30;14.50;;;11.70;99.90;;;;;;5070344;28;20207;-79
2023/03/21 11:43:02;;;;;;;21.47;14.40;;;11.80;99.90;;;;;;5072336;28;20205;-80
2023/03/21 11:45:32;;;;;;;25.30;15.37;;;11.90;99.90;;;;;;5073924;28;20555;-78
2023/03/21 11:48:00;;;;;;;23.40;14.90;;;12.00;99.90;;;;;;5067515;28;20226;-79
2023/03/21 11:50:34;;;;;;;20.33;14.77;;;12.20;99.90;;;;;;5070312;28;20322;-79
2023/03/21 11:53:18;;;;;;;23.47;14.97;;;12.30;99.90;;;;;;5046921;28;20682;-78
2023/03/21 11:55:58;;;;;;;24.27;14.10;;;12.30;99.90;;;;;;5052998;28;20179;-79
2023/03/21 11:58:36;;;;;;;23.00;14.03;;;12.30;99.90;;;;;;5067159;28;20217;-79
2023/03/21 12:01:28;;;;;;;21.07;13.50;;;12.30;99.90;;;;;;5046469;28;20553;-78
2023/03/21 12:03:53;;;;;;;22.77;13.87;;;12.50;99.90;;;;;;5059652;28;20199;-79
2023/03/21 12:06:30;;;;;;;21.87;13.13;;;12.60;99.90;;;;;;5070515;28;20223;-78
2023/03/21 12:09:25;;;;;;;18.63;12.60;;;12.60;99.90;;;;;;5067466;28;20202;-78
2023/03/21 12:11:59;;;;;;;20.73;12.87;;;12.60;99.90;;;;;;5064060;28;20681;-79
2023/03/21 12:14:43;;;;;;;19.53;12.80;;;12.80;99.90;;;;;;5065651;28;20285;-79
2023/03/21 12:17:21;;;;;;;18.10;12.77;;;12.80;99.90;;;;;;5068845;28;20264;-79
2023/03/21 12:20:04;;;;;;;19.83;12.83;;;12.80;99.90;;;;;;5047069;28;20178;-78
2023/03/21 12:22:37;;;;;;;18.03;11.83;;;12.80;99.90;;;;;;5047685;28;20544;-79
2023/03/21 12:25:42;;;;;;;21.40;12.47;;;12.90;99.90;;;;;;5061970;28;20206;-78
2023/03/21 12:28:07;;;;;;;19.43;12.90;;;12.80;99.90;;;;;;5056746;28;20214;-78
2023/03/21 12:31:18;;;;;;;19.17;11.80;;;12.90;99.90;;;;;;5069365;28;20626;-79
2023/03/21 12:33:58;;;;;;;17.27;12.00;;;12.80;99.90;;;;;;5071661;28;20556;-80
2023/03/21 12:36:42;;;;;;;17.70;10.70;;;12.90;99.90;;;;;;5056994;28;20261;-79
2023/03/21 12:39:34;;;;;;;16.83;11.30;;;12.80;99.90;;;;;;5075945;28;20285;-79
2023/03/21 12:42:22;;;;;;;16.63;11.43;;;12.80;99.90;;;;;;5056251;28;20202;-79
2023/03/21 12:45:01;;;;;;;15.03;10.73;;;12.70;99.90;;;;;;5066693;28;20226;-79
2023/03/21 12:47:31;;;;;;;16.73;11.23;;;12.70;99.90;;;;;;5051386;28;20633;-78
2023/03/21 12:50:06;;;;;;;18.63;11.00;;;12.50;99.90;;;;;;5053061;28;20241;-79
2023/03/21 12:52:40;;;;;;;18.83;11.70;;;12.60;99.90;;;;;;5066922;28;20250;-79
2023/03/21 12:55:06;;;;;;;16.20;11.13;;;12.50;99.90;;;;;;5045426;28;20198;-78